Montville, Maine
Current Conditions -  °F | °C
As of 12:35 AM on Wednesday 22 Oct 2014 (Local Time) from KWVL Reporting Station
Overcast Overcast  
Wind Chill: 39°   Ceiling: 500
Heat Index: 45°   Visibility: 7mi
Dew Point: 39°   Wind: 12mph
Humidity: 81%   Direction: 30°NNE
Pressure: 30.12"   Gusts: 18mph
Location:  44.4643°N, 69.3069°W
Report Text: KWVL 220435Z 03010G16KT 7SM OVC005 07/04 A3012 RMK AO1 P0002
Loading
Personal Weather Stations






























Interactive Weather Map
Tropical Storm Tracking
New forecast layout! Learn more

10-Day Weather Forecast

Advertisements
Track Severe Weather on mobile